createdAt,value
2023-01-20T00:01:55.173Z,21.98
2023-01-20T00:04:23.791Z,22.55
2023-01-20T00:06:52.787Z,20.85
2023-01-20T00:09:22.964Z,22.50
2023-01-20T00:11:51.668Z,21.88
2023-01-20T00:14:21.203Z,20.05
2023-01-20T00:16:50.253Z,21.45
2023-01-20T00:19:23.130Z,18.80
2023-01-20T00:21:51.954Z,20.10
2023-01-20T00:24:22.378Z,20.10
2023-01-20T00:26:51.199Z,18.67
2023-01-20T00:29:20.060Z,19.05
2023-01-20T00:31:48.958Z,18.05
2023-01-20T00:34:17.855Z,16.92
2023-01-20T00:36:46.640Z,18.17
2023-01-20T00:39:15.562Z,17.00
2023-01-20T00:41:45.650Z,17.05
2023-01-20T00:44:14.776Z,17.75
2023-01-20T00:46:43.558Z,19.52
2023-01-20T00:49:15.183Z,19.25
2023-01-20T00:51:43.927Z,19.35
2023-01-20T00:54:12.835Z,18.27
2023-01-20T00:56:42.011Z,17.90
2023-01-20T00:59:12.648Z,18.27
2023-01-20T01:01:41.369Z,17.27
2023-01-20T01:04:12.231Z,18.40
2023-01-20T01:06:44.002Z,16.77
2023-01-20T01:09:15.036Z,17.65
2023-01-20T01:11:43.761Z,18.05
2023-01-20T01:14:13.909Z,16.20
2023-01-20T01:16:45.843Z,17.42
2023-01-20T01:19:15.869Z,17.08
2023-01-20T01:21:44.626Z,18.85
2023-01-20T01:24:13.429Z,18.05
2023-01-20T01:26:45.513Z,16.08
2023-01-20T01:29:18.989Z,15.55
2023-01-20T01:31:47.822Z,17.05
2023-01-20T01:34:16.849Z,15.07
2023-01-20T01:36:45.616Z,15.90
2023-01-20T01:39:14.397Z,16.10
2023-01-20T01:41:43.348Z,16.83
2023-01-20T01:44:15.400Z,16.25
2023-01-20T01:46:47.895Z,16.05
2023-01-20T01:49:22.669Z,16.90
2023-01-20T01:51:56.496Z,17.73
2023-01-20T01:54:29.424Z,18.10
2023-01-20T02:18:28.304Z,22.10
2023-01-20T02:21:37.561Z,24.63
2023-01-20T02:24:52.982Z,23.65
2023-01-20T02:27:42.925Z,24.48
2023-01-20T02:30:39.125Z,25.35
2023-01-20T02:33:14.821Z,26.67
2023-01-20T02:35:48.932Z,26.35
2023-01-20T02:38:27.829Z,25.75
2023-01-20T02:41:05.552Z,25.60
2023-01-20T02:43:40.287Z,26.42
2023-01-20T02:46:15.871Z,27.85
2023-01-20T02:48:51.519Z,27.40
2023-01-20T02:51:25.011Z,30.45
2023-01-20T02:53:56.526Z,28.30
2023-01-20T02:56:30.371Z,30.05
2023-01-20T02:59:03.467Z,28.77
2023-01-20T03:01:35.872Z,28.50
2023-01-20T03:04:09.839Z,29.73
2023-01-20T03:06:45.543Z,29.45
2023-01-20T03:09:18.735Z,29.20
2023-01-20T03:11:53.140Z,31.20
2023-01-20T03:14:22.275Z,30.05
2023-01-20T03:34:49.067Z,27.15
2023-01-20T03:37:18.015Z,28.10
2023-01-20T03:39:47.114Z,29.25
2023-01-20T03:42:37.155Z,30.83
2023-01-20T03:45:12.762Z,31.15
2023-01-20T03:47:56.777Z,29.90
2023-01-20T03:50:38.161Z,31.88
2023-01-20T03:53:18.036Z,31.67
2023-01-20T03:55:53.374Z,30.67
2023-01-20T03:58:27.763Z,32.70
2023-01-20T04:00:59.218Z,33.53
2023-01-20T04:03:31.882Z,33.83
2023-01-20T04:06:05.878Z,35.35
2023-01-20T04:08:38.857Z,33.85
2023-01-20T04:11:09.953Z,33.65
2023-01-20T04:13:39.200Z,34.72
2023-01-20T04:16:14.368Z,34.45
2023-01-20T04:26:53.094Z,37.83
2023-01-20T04:29:22.038Z,38.03
2023-01-20T04:31:51.330Z,38.70
2023-01-20T04:34:20.373Z,40.67
2023-01-20T04:36:49.425Z,39.67
2023-01-20T04:39:18.910Z,40.28
2023-01-20T04:41:50.831Z,40.88
2023-01-20T04:44:21.688Z,39.47
2023-01-20T04:46:50.705Z,39.35
2023-01-20T04:49:19.490Z,40.10
2023-01-20T04:51:48.715Z,41.05
2023-01-20T04:54:17.489Z,39.22
2023-01-20T04:56:46.704Z,39.33
2023-01-20T04:59:17.056Z,39.55
2023-01-20T05:01:46.477Z,38.47
2023-01-20T05:04:15.406Z,40.40
2023-01-20T05:06:47.685Z,38.92
2023-01-20T05:31:48.280Z,37.88
2023-01-20T05:34:17.392Z,35.53
2023-01-20T05:36:46.107Z,34.85
2023-01-20T05:39:14.856Z,34.58
2023-01-20T05:41:46.952Z,34.33
2023-01-20T05:44:16.412Z,34.10
2023-01-20T05:46:45.404Z,35.75
2023-01-20T05:49:15.888Z,33.53
2023-01-20T05:51:44.901Z,34.50
2023-01-20T05:54:13.975Z,34.90
2023-01-20T06:07:33.155Z,33.55
2023-01-20T06:10:02.665Z,31.90
2023-01-20T06:12:35.035Z,32.05
2023-01-20T06:15:04.275Z,31.60
2023-01-20T06:17:33.244Z,31.63
2023-01-20T06:20:02.466Z,29.98
2023-01-20T06:22:32.796Z,31.58
2023-01-20T06:25:01.864Z,30.75
2023-01-20T06:27:31.681Z,30.98
2023-01-20T06:30:01.034Z,31.95
2023-01-20T06:32:29.796Z,29.65
2023-01-20T06:34:58.560Z,30.05
2023-01-20T06:37:27.291Z,29.85
2023-01-20T06:39:59.995Z,30.13
2023-01-20T06:42:29.160Z,29.45
2023-01-20T06:45:00.837Z,29.92
2023-01-20T06:47:35.734Z,28.92
2023-01-20T06:50:04.448Z,27.80
2023-01-20T07:00:36.843Z,25.70
2023-01-20T07:03:05.911Z,27.05
2023-01-20T07:05:35.004Z,26.50
2023-01-20T07:08:19.676Z,26.40
2023-01-20T07:10:48.577Z,26.35
2023-01-20T07:13:17.881Z,25.00
2023-01-20T07:15:48.240Z,25.98
2023-01-20T07:18:17.134Z,24.85
2023-01-20T07:20:45.728Z,26.25
2023-01-20T07:23:16.365Z,26.60
2023-01-20T07:25:45.443Z,26.92
2023-01-20T07:28:14.537Z,28.42
2023-01-20T07:30:43.890Z,29.52
2023-01-20T07:33:17.380Z,27.85
2023-01-20T07:35:46.434Z,30.45
2023-01-20T07:38:15.285Z,31.58
2023-01-20T07:40:44.030Z,30.85
2023-01-20T07:43:13.069Z,31.25
2023-01-20T07:45:42.288Z,33.25
2023-01-20T07:48:11.736Z,31.63
2023-01-20T07:50:42.568Z,34.70
2023-01-20T07:53:11.717Z,33.17
2023-01-20T07:55:40.816Z,35.83
2023-01-20T07:58:09.799Z,33.83
2023-01-20T08:00:40.087Z,31.38
2023-01-20T08:03:11.903Z,31.38
2023-01-20T08:05:42.179Z,32.55
2023-01-20T08:08:10.675Z,31.30
2023-01-20T08:10:39.034Z,32.58
2023-01-20T08:13:07.544Z,29.70
2023-01-20T08:15:35.779Z,30.30
2023-01-20T08:18:04.212Z,30.45
2023-01-20T08:20:32.529Z,31.33
2023-01-20T08:23:02.195Z,31.38
2023-01-20T08:25:30.434Z,30.38
2023-01-20T08:27:58.847Z,30.67
2023-01-20T08:30:27.191Z,29.75
2023-01-20T08:32:59.131Z,28.75
2023-01-20T08:35:27.877Z,28.17
2023-01-20T08:37:59.163Z,25.20
2023-01-20T08:40:29.101Z,27.75
2023-01-20T08:43:02.429Z,26.65
2023-01-20T08:45:34.138Z,27.52
2023-01-20T08:48:03.314Z,23.67
2023-01-20T08:50:32.029Z,24.20
2023-01-20T08:53:00.856Z,23.95
2023-01-20T08:55:33.010Z,21.52
2023-01-20T08:58:02.750Z,24.60
2023-01-20T09:00:36.171Z,21.98
2023-01-20T09:03:05.397Z,22.05
2023-01-20T09:05:38.152Z,24.60
2023-01-20T09:08:07.867Z,23.48
2023-01-20T09:10:43.828Z,23.50
2023-01-20T09:13:12.965Z,23.75
2023-01-20T09:15:41.786Z,22.48
2023-01-20T09:18:13.327Z,24.25
2023-01-20T09:20:42.080Z,25.00
2023-01-20T09:23:10.789Z,37.40
2023-01-20T09:25:43.265Z,38.42
2023-01-20T09:28:14.404Z,29.05
2023-01-20T09:30:43.958Z,23.52
2023-01-20T09:33:14.095Z,23.75
2023-01-20T09:35:46.415Z,21.63
2023-01-20T09:38:33.868Z,23.67
2023-01-20T09:41:35.362Z,23.42
2023-01-20T09:44:24.483Z,23.02
2023-01-20T09:47:21.072Z,24.95
2023-01-20T09:50:37.842Z,35.10
2023-01-20T09:53:15.700Z,28.73
2023-01-20T09:55:50.993Z,27.98
2023-01-20T09:58:32.832Z,23.80
2023-01-20T10:01:12.362Z,21.63
2023-01-20T10:03:49.488Z,20.73
2023-01-20T10:06:26.528Z,20.85
2023-01-20T10:09:05.890Z,20.45
2023-01-20T10:11:40.328Z,21.88
2023-01-20T10:14:21.345Z,19.60
2023-01-20T10:16:56.457Z,21.33
2023-01-20T10:19:35.190Z,21.45
2023-01-20T10:22:12.645Z,21.55
2023-01-20T10:24:55.609Z,22.20
2023-01-20T10:27:28.289Z,22.73
2023-01-20T10:30:06.171Z,23.00
2023-01-20T10:32:38.643Z,22.23
2023-01-20T10:35:15.929Z,21.38
2023-01-20T10:37:47.426Z,21.88
2023-01-20T10:40:35.222Z,23.42
2023-01-20T10:43:12.537Z,23.92
2023-01-20T10:46:03.186Z,21.48
2023-01-20T10:48:58.604Z,21.98
2023-01-20T10:51:36.950Z,24.88
2023-01-20T10:54:24.718Z,23.17
2023-01-20T10:56:56.781Z,24.13
2023-01-20T10:59:32.503Z,27.08
2023-01-20T11:02:12.793Z,25.63
2023-01-20T11:04:42.709Z,25.50
2023-01-20T11:07:17.557Z,24.85
2023-01-20T11:09:49.035Z,24.20
2023-01-20T11:12:22.710Z,24.40
2023-01-20T11:14:52.002Z,21.55
2023-01-20T11:17:22.516Z,21.50
2023-01-20T11:19:55.028Z,22.33
2023-01-20T11:22:30.759Z,21.48
2023-01-20T11:25:01.123Z,21.05
2023-01-20T11:27:38.371Z,21.20
2023-01-20T11:30:22.203Z,20.58
2023-01-20T11:33:13.146Z,19.42
2023-01-20T11:35:41.355Z,20.48
2023-01-20T11:38:27.346Z,20.95
2023-01-20T11:40:57.489Z,19.92
2023-01-20T11:43:40.891Z,21.40
2023-01-20T11:46:22.650Z,19.92
2023-01-20T11:49:11.799Z,17.85
2023-01-20T11:51:51.746Z,17.90
2023-01-20T11:54:23.525Z,17.42
2023-01-20T11:56:56.614Z,19.73
2023-01-20T11:59:30.820Z,16.38
2023-01-20T12:02:02.315Z,15.95
2023-01-20T12:04:59.360Z,15.60
2023-01-20T12:07:33.616Z,14.27
2023-01-20T12:10:08.350Z,14.02
2023-01-20T12:12:42.825Z,14.18
2023-01-20T12:15:24.112Z,12.93
2023-01-20T12:18:01.846Z,9.50
2023-01-20T12:20:54.059Z,11.57
2023-01-20T12:23:34.729Z,10.65
2023-01-20T12:26:05.748Z,9.00
2023-01-20T12:28:42.514Z,8.25
2023-01-20T12:31:12.707Z,7.03
2023-01-20T12:33:45.524Z,6.30
2023-01-20T12:36:49.867Z,5.97
2023-01-20T12:39:36.870Z,6.28
2023-01-20T12:42:39.998Z,7.10
2023-01-20T12:45:24.396Z,6.57
2023-01-20T12:48:07.863Z,6.07
2023-01-20T12:50:55.391Z,5.80
2023-01-20T12:53:41.891Z,6.18
2023-01-20T12:56:25.854Z,5.68
2023-01-20T12:59:05.554Z,5.55
2023-01-20T13:02:00.368Z,5.28
2023-01-20T13:05:23.419Z,4.85
2023-01-20T13:08:10.009Z,4.40
2023-01-20T13:11:03.337Z,5.00
2023-01-20T13:13:56.474Z,4.47
2023-01-20T13:16:36.415Z,5.28
2023-01-20T13:19:17.138Z,4.85
2023-01-20T13:21:54.024Z,5.30
2023-01-20T13:24:30.364Z,5.60
2023-01-20T13:27:00.898Z,5.93
2023-01-20T13:29:45.663Z,4.80
2023-01-20T13:32:34.076Z,5.70
2023-01-20T13:35:27.511Z,6.13
2023-01-20T13:38:02.235Z,5.53
2023-01-20T13:40:55.833Z,6.20
2023-01-20T13:43:57.044Z,6.90
2023-01-20T13:46:49.201Z,7.30
2023-01-20T13:49:46.377Z,8.18
2023-01-20T13:52:17.441Z,9.82
2023-01-20T13:54:49.433Z,9.55
2023-01-20T13:57:49.388Z,10.73
2023-01-20T14:09:24.004Z,13.02
2023-01-20T14:11:56.357Z,12.77
2023-01-20T14:14:28.420Z,11.70
2023-01-20T14:17:00.643Z,12.15
2023-01-20T14:19:34.432Z,11.95
2023-01-20T14:23:16.778Z,10.50
2023-01-20T14:25:59.039Z,11.02
2023-01-20T14:28:30.033Z,10.38
2023-01-20T14:31:26.081Z,10.23
2023-01-20T14:34:00.678Z,9.80
2023-01-20T14:36:34.505Z,10.40
2023-01-20T14:39:09.682Z,10.85
2023-01-20T14:41:49.163Z,9.93
2023-01-20T14:44:25.300Z,10.10
2023-01-20T14:46:57.581Z,10.63
2023-01-20T14:52:10.375Z,10.35
2023-01-20T14:54:44.117Z,8.85
2023-01-20T14:57:29.683Z,9.82
2023-01-20T15:00:20.889Z,10.80
2023-01-20T15:03:09.545Z,10.60
2023-01-20T15:05:45.332Z,11.63
2023-01-20T15:08:31.192Z,11.45
2023-01-20T15:11:25.475Z,11.10
2023-01-20T15:14:21.185Z,11.63
2023-01-20T15:16:53.642Z,11.35
2023-01-20T15:19:46.335Z,11.75
2023-01-20T15:22:24.309Z,11.02
2023-01-20T15:24:55.133Z,11.35
2023-01-20T15:27:33.735Z,11.30
2023-01-20T15:30:21.511Z,11.13
2023-01-20T15:32:55.366Z,11.60
2023-01-20T15:35:26.956Z,12.13
2023-01-20T15:37:56.552Z,11.32
2023-01-20T15:40:27.010Z,13.93
2023-01-20T15:42:57.596Z,14.70
2023-01-20T15:45:29.914Z,14.23
2023-01-20T15:48:00.868Z,14.82
2023-01-20T15:50:31.448Z,14.07
2023-01-20T15:53:01.131Z,15.73
2023-01-20T15:55:30.231Z,14.88
2023-01-20T15:58:01.967Z,15.68
2023-01-20T16:00:30.873Z,15.35
2023-01-20T16:03:06.799Z,16.83
2023-01-20T16:05:35.855Z,16.63
2023-01-20T16:08:07.273Z,16.58
2023-01-20T16:10:36.321Z,15.65
2023-01-20T16:13:05.457Z,17.40
2023-01-20T16:15:34.864Z,18.05
2023-01-20T16:18:06.705Z,16.75
2023-01-20T16:20:40.890Z,15.77
2023-01-20T16:23:10.235Z,17.80
2023-01-20T16:25:40.835Z,17.67
2023-01-20T16:28:21.342Z,18.02
2023-01-20T16:30:51.702Z,18.63
2023-01-20T16:33:24.758Z,18.40
2023-01-20T16:35:56.241Z,18.55
2023-01-20T16:38:29.885Z,18.25
2023-01-20T16:41:05.468Z,18.63
2023-01-20T16:43:34.364Z,19.42
2023-01-20T16:46:03.394Z,19.33
2023-01-20T16:48:34.011Z,19.83
2023-01-20T16:51:05.612Z,19.10
2023-01-20T16:53:34.472Z,17.95
2023-01-20T16:56:03.319Z,19.02
2023-01-20T16:58:32.514Z,16.83
2023-01-20T17:01:01.352Z,20.25
2023-01-20T17:03:30.138Z,19.90
2023-01-20T17:06:00.293Z,18.40
2023-01-20T17:08:29.170Z,19.50
2023-01-20T17:10:58.540Z,19.48
2023-01-20T17:13:27.159Z,19.27
2023-01-20T17:15:55.811Z,21.70
2023-01-20T17:18:24.695Z,20.38
2023-01-20T17:20:53.460Z,20.50
2023-01-20T17:23:23.416Z,21.63
2023-01-20T17:25:52.416Z,18.23
2023-01-20T17:28:21.376Z,19.70
2023-01-20T17:30:50.116Z,20.50
2023-01-20T17:33:19.156Z,18.45
2023-01-20T17:35:57.905Z,19.75
2023-01-20T17:38:29.077Z,20.15
2023-01-20T17:41:02.854Z,19.35
2023-01-20T17:43:34.070Z,18.90
2023-01-20T18:10:16.284Z,16.58
2023-01-20T18:12:45.561Z,17.55
2023-01-20T18:15:14.365Z,18.60
2023-01-20T18:17:43.845Z,17.13
2023-01-20T18:28:20.231Z,16.80
2023-01-20T18:30:49.248Z,16.35
2023-01-20T18:33:19.826Z,16.63
2023-01-20T18:35:48.608Z,16.33
2023-01-20T18:38:20.661Z,16.23
2023-01-20T18:40:49.423Z,16.15
2023-01-20T18:43:19.586Z,15.95
2023-01-20T18:45:48.720Z,16.98
2023-01-20T18:48:18.159Z,17.00
2023-01-20T18:50:47.450Z,15.65
2023-01-20T18:53:16.190Z,17.45
2023-01-20T18:55:45.009Z,17.52
2023-01-20T18:58:17.866Z,17.75
2023-01-20T19:00:48.034Z,19.02
2023-01-20T19:03:20.557Z,18.50
2023-01-20T19:05:49.179Z,19.48
2023-01-20T19:08:17.839Z,19.05
2023-01-20T19:10:46.843Z,19.50
2023-01-20T19:13:15.469Z,18.95
2023-01-20T19:15:44.580Z,19.10
2023-01-20T19:18:14.873Z,20.60
2023-01-20T19:20:44.080Z,21.02
2023-01-20T19:23:15.248Z,20.85
2023-01-20T19:25:44.034Z,21.58
2023-01-20T19:28:14.938Z,22.08
2023-01-20T19:30:43.823Z,24.13
2023-01-20T19:33:16.374Z,22.20
2023-01-20T19:35:45.202Z,25.33
2023-01-20T19:38:26.433Z,25.00
2023-01-20T19:40:58.716Z,24.60
2023-01-20T19:43:27.618Z,25.95
2023-01-20T19:45:56.440Z,25.60
2023-01-20T19:48:26.716Z,26.13
2023-01-20T19:50:55.808Z,26.35
2023-01-20T19:53:24.644Z,26.52
2023-01-20T19:55:53.327Z,28.05
2023-01-20T19:58:22.052Z,28.95
2023-01-20T20:00:51.197Z,29.92
2023-01-20T20:03:20.577Z,28.25
2023-01-20T20:05:51.028Z,26.80
2023-01-20T20:08:20.105Z,28.33
2023-01-20T20:10:48.893Z,26.98
2023-01-20T20:13:17.555Z,28.02
2023-01-20T20:15:46.476Z,28.20
2023-01-20T20:18:15.003Z,30.65
2023-01-20T20:20:45.778Z,29.45
2023-01-20T20:23:18.162Z,30.15
2023-01-20T20:25:56.095Z,28.52
2023-01-20T20:28:25.647Z,28.67
2023-01-20T20:30:56.400Z,28.02
2023-01-20T20:33:26.201Z,29.52
2023-01-20T20:35:55.142Z,32.80
2023-01-20T20:38:25.644Z,30.55
2023-01-20T20:41:10.199Z,28.27
2023-01-20T20:43:50.235Z,29.88
2023-01-20T20:46:21.537Z,29.38
2023-01-20T20:48:54.771Z,29.65
2023-01-20T20:51:24.277Z,28.65
2023-01-20T20:53:58.034Z,29.00
2023-01-20T20:56:31.978Z,29.30
2023-01-20T20:59:03.554Z,31.60
2023-01-20T21:01:35.001Z,29.90
2023-01-20T21:04:05.959Z,30.55
2023-01-20T21:06:35.477Z,28.33
2023-01-20T21:09:07.917Z,30.63
2023-01-20T21:11:38.453Z,28.92
2023-01-20T21:14:08.600Z,29.73
2023-01-20T21:16:40.504Z,27.95
2023-01-20T21:19:09.637Z,28.35
2023-01-20T21:21:38.800Z,29.67
2023-01-20T21:24:14.098Z,30.90
2023-01-20T21:26:43.207Z,29.85
2023-01-20T21:29:13.686Z,29.83
2023-01-20T21:31:42.926Z,27.83
2023-01-20T21:34:16.127Z,27.70
2023-01-20T21:36:46.676Z,27.50
2023-01-20T21:39:36.227Z,28.15
2023-01-20T21:42:06.244Z,28.95
2023-01-20T21:44:36.525Z,28.33
2023-01-20T21:47:10.215Z,27.73
2023-01-20T21:49:56.956Z,28.60
2023-01-20T21:52:45.571Z,26.67
2023-01-20T21:55:25.594Z,27.17
2023-01-20T21:57:55.603Z,27.90
2023-01-20T22:00:29.787Z,27.48
2023-01-20T22:02:58.733Z,27.52
2023-01-20T22:05:27.689Z,27.35
2023-01-20T22:07:56.381Z,27.02
2023-01-20T22:10:26.817Z,29.42
2023-01-20T22:12:56.657Z,28.23
2023-01-20T22:15:25.913Z,30.42
2023-01-20T22:17:55.224Z,29.30
2023-01-20T22:20:24.277Z,29.05
2023-01-20T22:22:53.042Z,27.27
2023-01-20T22:25:23.524Z,28.77
2023-01-20T22:27:54.211Z,29.58
2023-01-20T22:30:23.565Z,27.92
2023-01-20T22:32:52.552Z,27.35
2023-01-20T22:35:21.927Z,27.45
2023-01-20T22:37:52.886Z,27.92
2023-01-20T22:40:21.704Z,26.42
2023-01-20T22:42:50.907Z,27.75
2023-01-20T22:45:21.277Z,27.20
2023-01-20T22:47:50.179Z,28.05
2023-01-20T22:50:22.613Z,27.67
2023-01-20T22:52:51.883Z,26.92
2023-01-20T22:55:26.016Z,26.95
2023-01-20T22:57:57.928Z,26.35
2023-01-20T23:00:30.414Z,29.70
2023-01-20T23:02:59.103Z,29.88
2023-01-20T23:05:31.197Z,29.27
2023-01-20T23:08:00.448Z,31.05
2023-01-20T23:10:49.664Z,29.30
2023-01-20T23:13:20.558Z,30.08
2023-01-20T23:16:10.890Z,28.58
2023-01-20T23:18:44.656Z,28.75
2023-01-20T23:21:21.438Z,30.08
2023-01-20T23:23:55.078Z,26.90
2023-01-20T23:26:30.433Z,28.85
2023-01-20T23:29:00.077Z,28.52
2023-01-20T23:31:33.452Z,27.38
2023-01-20T23:34:05.922Z,27.88
2023-01-20T23:36:34.669Z,30.17
2023-01-20T23:39:03.391Z,28.73
2023-01-20T23:41:32.628Z,30.50
2023-01-20T23:44:02.948Z,29.23
2023-01-20T23:46:33.475Z,30.13
2023-01-20T23:49:02.764Z,28.95
2023-01-20T23:51:31.639Z,30.52
2023-01-20T23:54:02.816Z,31.77
2023-01-20T23:56:31.805Z,28.45
2023-01-20T23:59:00.645Z,30.10
